Time;durP1;ratioP1;P1;durP2;ratioP2;P2;SDS_P1;SDS_P2;PMS_P1;PMS_P2;Temp;Humidity;BMP_temperature;BMP_pressure;BME280_temperature;BME280_humidity;BME280_pressure;Samples;Min_cycle;Max_cycle;Signal;HPM_P1;HPM_P2
2021/04/03 00:00:44;;;;;;;19.02;4.88;;;;;;;;;;5086145;28;20755;-71
2021/04/03 00:03:11;;;;;;;22.33;4.93;;;;;;;;;;5082486;28;20421;-70
2021/04/03 00:05:37;;;;;;;24.35;5.28;;;;;;;;;;5086127;28;21074;-70
2021/04/03 00:08:04;;;;;;;23.48;5.15;;;;;;;;;;5066048;28;20453;-70
2021/04/03 00:10:36;;;;;;;24.48;4.68;;;;;;;;;;5085255;28;20394;-70
2021/04/03 00:13:02;;;;;;;17.48;4.18;;;;;;;;;;5086003;28;20429;-71
2021/04/03 00:15:28;;;;;;;19.38;4.88;;;;;;;;;;5086559;28;20394;-70
2021/04/03 00:17:54;;;;;;;21.37;4.67;;;;;;;;;;5063651;28;20484;-71
2021/04/03 00:20:21;;;;;;;22.13;4.75;;;;;;;;;;5084659;28;20398;-70
2021/04/03 00:22:47;;;;;;;21.25;4.53;;;;;;;;;;5084636;28;20492;-70
2021/04/03 00:25:14;;;;;;;23.17;4.65;;;;;;;;;;5085120;28;20765;-70
2021/04/03 00:27:40;;;;;;;22.80;5.07;;;;;;;;;;5082362;28;20424;-70
2021/04/03 00:30:19;;;;;;;21.08;4.63;;;;;;;;;;5087610;28;20856;-71
2021/04/03 00:32:48;;;;;;;25.38;4.93;;;;;;;;;;5085587;28;20386;-70
2021/04/03 00:35:15;;;;;;;22.17;4.63;;;;;;;;;;5090010;28;20389;-70
2021/04/03 00:37:41;;;;;;;22.10;4.90;;;;;;;;;;5087259;28;20397;-70
2021/04/03 00:40:10;;;;;;;22.65;4.93;;;;;;;;;;5089105;28;21117;-70
2021/04/03 00:42:36;;;;;;;21.73;5.20;;;;;;;;;;5090150;28;20458;-70
2021/04/03 00:45:03;;;;;;;19.00;4.43;;;;;;;;;;5086621;28;20416;-70
2021/04/03 00:47:29;;;;;;;24.80;5.13;;;;;;;;;;5075067;28;21218;-70
2021/04/03 00:49:55;;;;;;;17.77;4.82;;;;;;;;;;5088524;28;20426;-71
2021/04/03 00:52:21;;;;;;;26.80;5.50;;;;;;;;;;5068089;28;20410;-70
2021/04/03 00:54:47;;;;;;;22.10;5.30;;;;;;;;;;5087688;28;20863;-70
2021/04/03 00:57:13;;;;;;;26.67;5.93;;;;;;;;;;5086288;28;20394;-70
2021/04/03 00:59:39;;;;;;;23.65;5.32;;;;;;;;;;5088219;28;20398;-71
2021/04/03 01:02:05;;;;;;;20.63;5.53;;;;;;;;;;5087412;28;20406;-70
2021/04/03 01:04:32;;;;;;;21.25;4.88;;;;;;;;;;5070406;28;20421;-70
2021/04/03 01:06:58;;;;;;;24.67;6.00;;;;;;;;;;5089253;28;20557;-70
2021/04/03 01:09:24;;;;;;;24.17;5.60;;;;;;;;;;5068394;28;20985;-70
2021/04/03 01:12:11;;;;;;;20.85;5.50;;;;;;;;;;5084265;28;20394;-71
2021/04/03 01:14:55;;;;;;;23.83;5.33;;;;;;;;;;5085146;28;20405;-70
2021/04/03 01:17:29;;;;;;;24.10;5.38;;;;;;;;;;5086900;28;20757;-70
2021/04/03 01:20:24;;;;;;;27.37;5.93;;;;;;;;;;5072808;28;20972;-70
2021/04/03 01:22:53;;;;;;;25.50;5.77;;;;;;;;;;5035765;28;20493;-70
2021/04/03 01:25:37;;;;;;;22.80;5.68;;;;;;;;;;5088078;28;20432;-70
2021/04/03 01:28:12;;;;;;;25.63;5.68;;;;;;;;;;5085184;28;20922;-70
2021/04/03 01:30:41;;;;;;;23.63;5.32;;;;;;;;;;5087091;28;20398;-70
2021/04/03 01:33:09;;;;;;;22.80;5.72;;;;;;;;;;5087579;28;20409;-70
2021/04/03 01:35:40;;;;;;;20.90;5.05;;;;;;;;;;5086412;28;20393;-71
2021/04/03 01:38:07;;;;;;;21.67;5.00;;;;;;;;;;5084794;28;20455;-70
2021/04/03 01:40:34;;;;;;;23.25;5.68;;;;;;;;;;5087806;28;20443;-70
2021/04/03 01:43:07;;;;;;;25.45;5.30;;;;;;;;;;5088079;28;20422;-70
2021/04/03 01:45:34;;;;;;;26.77;6.20;;;;;;;;;;5087832;28;20363;-70
2021/04/03 01:48:01;;;;;;;29.05;5.90;;;;;;;;;;5085732;28;20394;-70
2021/04/03 01:50:28;;;;;;;26.95;5.75;;;;;;;;;;5086582;28;20382;-70
2021/04/03 01:52:55;;;;;;;24.23;6.00;;;;;;;;;;5088715;28;20751;-70
2021/04/03 01:55:21;;;;;;;21.65;5.15;;;;;;;;;;5088127;28;20407;-70
2021/04/03 01:57:51;;;;;;;22.48;5.47;;;;;;;;;;5086853;28;20398;-70
2021/04/03 02:00:20;;;;;;;25.13;5.43;;;;;;;;;;5086937;28;20418;-71
2021/04/03 02:02:46;;;;;;;28.42;5.95;;;;;;;;;;5088042;28;20386;-70
2021/04/03 02:05:13;;;;;;;23.90;5.80;;;;;;;;;;5084722;28;20854;-70
2021/04/03 02:07:40;;;;;;;24.05;5.60;;;;;;;;;;5087376;28;20386;-70
2021/04/03 02:10:07;;;;;;;27.40;5.78;;;;;;;;;;5082695;28;20962;-70
2021/04/03 02:12:38;;;;;;;27.85;6.63;;;;;;;;;;5088030;28;20486;-70
2021/04/03 02:15:06;;;;;;;26.38;6.43;;;;;;;;;;5087509;28;20698;-70
2021/04/03 02:17:32;;;;;;;31.33;6.55;;;;;;;;;;5082690;28;20405;-70
2021/04/03 02:19:59;;;;;;;23.20;5.60;;;;;;;;;;5086097;28;20509;-71
2021/04/03 02:22:25;;;;;;;25.52;6.43;;;;;;;;;;5085893;28;20390;-70
2021/04/03 02:24:51;;;;;;;28.37;6.50;;;;;;;;;;5084219;28;20745;-70
2021/04/03 02:27:17;;;;;;;33.78;7.13;;;;;;;;;;5086844;28;20827;-70
2021/04/03 02:29:45;;;;;;;31.85;6.95;;;;;;;;;;5085919;28;20397;-70
2021/04/03 02:32:11;;;;;;;32.65;6.78;;;;;;;;;;5087593;28;20400;-71
2021/04/03 02:34:37;;;;;;;27.63;6.90;;;;;;;;;;5069467;28;20394;-70
2021/04/03 02:37:03;;;;;;;27.13;7.28;;;;;;;;;;5085904;28;20413;-70
2021/04/03 02:39:29;;;;;;;30.35;7.15;;;;;;;;;;5081775;28;20398;-70
2021/04/03 02:42:01;;;;;;;27.73;7.18;;;;;;;;;;5085353;28;20445;-70
2021/04/03 02:44:47;;;;;;;31.92;7.70;;;;;;;;;;5086046;28;20468;-70
2021/04/03 02:47:17;;;;;;;35.63;7.20;;;;;;;;;;5085733;28;20382;-70
2021/04/03 02:49:50;;;;;;;32.60;7.28;;;;;;;;;;5084651;28;20409;-70
2021/04/03 02:52:16;;;;;;;30.88;7.63;;;;;;;;;;5086138;28;20440;-70
2021/04/03 02:54:43;;;;;;;36.20;7.60;;;;;;;;;;5086649;28;20470;-70
2021/04/03 02:57:12;;;;;;;28.55;7.28;;;;;;;;;;5086298;28;20459;-70
2021/04/03 02:59:40;;;;;;;32.38;7.60;;;;;;;;;;5085200;28;20417;-70
2021/04/03 03:02:07;;;;;;;34.63;7.43;;;;;;;;;;5084376;28;20874;-70
2021/04/03 03:04:33;;;;;;;30.88;8.23;;;;;;;;;;5084843;28;20451;-70
2021/04/03 03:06:59;;;;;;;34.42;7.85;;;;;;;;;;5083831;28;20401;-70
2021/04/03 03:09:26;;;;;;;29.20;6.80;;;;;;;;;;5085697;28;20485;-70
2021/04/03 03:11:53;;;;;;;35.70;7.95;;;;;;;;;;5086752;28;20727;-70
2021/04/03 03:14:22;;;;;;;31.88;7.30;;;;;;;;;;5085519;28;20463;-70
2021/04/03 03:16:48;;;;;;;33.92;7.43;;;;;;;;;;5087042;28;20401;-70
2021/04/03 03:19:15;;;;;;;31.50;6.95;;;;;;;;;;5085963;28;20906;-70
2021/04/03 03:21:41;;;;;;;27.40;7.45;;;;;;;;;;5086485;28;20789;-70
2021/04/03 03:24:11;;;;;;;33.00;7.40;;;;;;;;;;5083492;28;20944;-70
2021/04/03 03:26:38;;;;;;;33.22;7.97;;;;;;;;;;5067553;28;20398;-70
2021/04/03 03:29:09;;;;;;;29.83;7.70;;;;;;;;;;5085235;28;20791;-69
2021/04/03 03:31:35;;;;;;;38.80;8.35;;;;;;;;;;5065239;28;20390;-69
2021/04/03 03:34:02;;;;;;;37.72;7.93;;;;;;;;;;5085713;28;20522;-70
2021/04/03 03:36:28;;;;;;;36.35;8.50;;;;;;;;;;5086274;28;20377;-70
2021/04/03 03:38:55;;;;;;;30.05;7.40;;;;;;;;;;5083508;28;20493;-70
2021/04/03 03:41:22;;;;;;;37.90;7.72;;;;;;;;;;5084340;28;20382;-70
2021/04/03 03:43:48;;;;;;;30.02;8.13;;;;;;;;;;5085799;28;20418;-70
2021/04/03 03:46:14;;;;;;;31.00;7.10;;;;;;;;;;5084151;28;20503;-70
2021/04/03 03:48:40;;;;;;;30.95;7.70;;;;;;;;;;5085764;28;20535;-70
2021/04/03 03:51:06;;;;;;;38.60;9.07;;;;;;;;;;5085965;28;20382;-70
2021/04/03 03:53:32;;;;;;;33.40;7.65;;;;;;;;;;5085091;28;20424;-70
2021/04/03 03:55:59;;;;;;;33.63;8.00;;;;;;;;;;5083747;28;20434;-70
2021/04/03 03:58:25;;;;;;;31.35;7.20;;;;;;;;;;5083117;28;20950;-70
2021/04/03 04:00:51;;;;;;;37.55;7.70;;;;;;;;;;5082357;28;20450;-70
2021/04/03 04:03:17;;;;;;;32.25;7.82;;;;;;;;;;5083159;28;20400;-70
2021/04/03 04:05:43;;;;;;;33.50;8.30;;;;;;;;;;5089555;28;20398;-71
2021/04/03 04:08:10;;;;;;;36.08;8.25;;;;;;;;;;5088300;28;20409;-70
2021/04/03 04:10:36;;;;;;;30.90;8.13;;;;;;;;;;5087486;28;20385;-70
2021/04/03 04:13:02;;;;;;;29.80;7.87;;;;;;;;;;5089226;28;20797;-70
2021/04/03 04:15:28;;;;;;;30.63;7.47;;;;;;;;;;5088851;28;20406;-70
2021/04/03 04:17:54;;;;;;;35.03;8.13;;;;;;;;;;5090745;28;20393;-70
2021/04/03 04:20:20;;;;;;;34.90;8.10;;;;;;;;;;5087213;28;20836;-70
2021/04/03 04:22:46;;;;;;;34.47;8.10;;;;;;;;;;5070425;28;20412;-70
2021/04/03 04:25:12;;;;;;;31.13;7.88;;;;;;;;;;5089651;28;21110;-70
2021/04/03 04:27:38;;;;;;;33.83;7.55;;;;;;;;;;5070569;28;20499;-70
2021/04/03 04:30:12;;;;;;;36.42;7.88;;;;;;;;;;5071596;28;20390;-70
2021/04/03 04:32:41;;;;;;;30.70;8.18;;;;;;;;;;5086838;28;20482;-70
2021/04/03 04:35:08;;;;;;;30.30;7.68;;;;;;;;;;5085921;28;20427;-70
2021/04/03 04:37:34;;;;;;;28.10;7.75;;;;;;;;;;5069867;28;20402;-70
2021/04/03 04:40:00;;;;;;;30.33;7.90;;;;;;;;;;5089707;28;20458;-70
2021/04/03 04:42:27;;;;;;;33.03;8.18;;;;;;;;;;5087597;28;20398;-70
2021/04/03 04:44:52;;;;;;;35.22;7.90;;;;;;;;;;5071241;28;20421;-71
2021/04/03 04:47:19;;;;;;;31.75;7.88;;;;;;;;;;5088223;28;20437;-70
2021/04/03 04:49:45;;;;;;;30.73;7.82;;;;;;;;;;5089450;28;20386;-70
2021/04/03 04:52:11;;;;;;;31.67;7.72;;;;;;;;;;5088318;28;20862;-69
2021/04/03 04:54:37;;;;;;;30.10;7.17;;;;;;;;;;5087666;28;20398;-70
2021/04/03 04:57:03;;;;;;;34.85;8.65;;;;;;;;;;5071523;28;20739;-70
2021/04/03 04:59:29;;;;;;;29.15;6.97;;;;;;;;;;5087830;28;20429;-70
2021/04/03 05:01:55;;;;;;;36.42;8.75;;;;;;;;;;5088715;28;20426;-70
2021/04/03 05:04:21;;;;;;;34.53;8.05;;;;;;;;;;5087494;28;20495;-70
2021/04/03 05:06:47;;;;;;;35.47;8.15;;;;;;;;;;5087848;28;20443;-70
2021/04/03 05:09:13;;;;;;;31.85;7.95;;;;;;;;;;5088805;28;20783;-70
2021/04/03 05:11:39;;;;;;;32.83;8.35;;;;;;;;;;5088654;28;20492;-70
2021/04/03 05:14:05;;;;;;;31.38;8.20;;;;;;;;;;5088922;28;21052;-70
2021/04/03 05:16:31;;;;;;;36.37;8.17;;;;;;;;;;5085772;28;20406;-70
2021/04/03 05:18:57;;;;;;;35.15;7.85;;;;;;;;;;5087594;28;20394;-70
2021/04/03 05:21:23;;;;;;;34.58;8.10;;;;;;;;;;5082950;28;20404;-70
2021/04/03 05:23:49;;;;;;;34.50;8.02;;;;;;;;;;5089098;28;20448;-70
2021/04/03 05:26:15;;;;;;;32.53;7.78;;;;;;;;;;5088708;28;20480;-70
2021/04/03 05:28:41;;;;;;;31.08;8.20;;;;;;;;;;5087033;28;20725;-70
2021/04/03 05:31:07;;;;;;;33.28;8.30;;;;;;;;;;5087708;28;20421;-70
2021/04/03 05:33:33;;;;;;;30.25;7.68;;;;;;;;;;5087967;28;20716;-70
2021/04/03 05:35:59;;;;;;;34.17;7.83;;;;;;;;;;5084236;28;20874;-70
2021/04/03 05:38:25;;;;;;;35.33;8.65;;;;;;;;;;5088758;28;20902;-70
2021/04/03 05:40:52;;;;;;;30.10;7.70;;;;;;;;;;5087454;28;20454;-70
2021/04/03 05:43:19;;;;;;;34.72;8.55;;;;;;;;;;5087614;28;21016;-69
2021/04/03 05:45:46;;;;;;;37.80;8.48;;;;;;;;;;5086495;28;20500;-70
2021/04/03 05:48:13;;;;;;;32.88;8.30;;;;;;;;;;5086468;28;20388;-70
2021/04/03 05:50:39;;;;;;;31.10;7.85;;;;;;;;;;5087184;28;20397;-70
2021/04/03 05:53:05;;;;;;;36.10;8.48;;;;;;;;;;5085039;28;20433;-70
2021/04/03 05:55:31;;;;;;;33.88;7.72;;;;;;;;;;5084852;28;20432;-70
2021/04/03 05:57:57;;;;;;;36.28;8.82;;;;;;;;;;5085493;28;20485;-70
2021/04/03 06:00:23;;;;;;;29.02;7.43;;;;;;;;;;5085274;28;22146;-70
2021/04/03 06:02:49;;;;;;;33.85;8.05;;;;;;;;;;5079508;28;20402;-70
2021/04/03 06:05:15;;;;;;;29.38;7.68;;;;;;;;;;5083890;28;20470;-70
2021/04/03 06:07:41;;;;;;;37.30;8.35;;;;;;;;;;5083924;28;20887;-71
2021/04/03 06:10:08;;;;;;;35.67;8.10;;;;;;;;;;5083844;28;20453;-70
2021/04/03 06:12:41;;;;;;;28.38;8.10;;;;;;;;;;5088068;28;20486;-70
2021/04/03 06:15:08;;;;;;;30.00;7.88;;;;;;;;;;5086360;28;20393;-70
2021/04/03 06:17:34;;;;;;;34.95;8.25;;;;;;;;;;5068209;28;21077;-70
2021/04/03 06:20:00;;;;;;;34.85;8.07;;;;;;;;;;5084762;28;20858;-70
2021/04/03 06:22:26;;;;;;;33.10;8.93;;;;;;;;;;5085791;28;20402;-72
2021/04/03 06:25:05;;;;;;;37.17;8.98;;;;;;;;;;5067566;28;20904;-70
2021/04/03 06:27:31;;;;;;;35.67;8.60;;;;;;;;;;5086187;28;20404;-70
2021/04/03 06:29:58;;;;;;;40.20;9.15;;;;;;;;;;5087065;28;20382;-71
2021/04/03 06:32:26;;;;;;;32.58;8.25;;;;;;;;;;5088012;28;20700;-70
2021/04/03 06:34:53;;;;;;;39.28;9.85;;;;;;;;;;5087621;28;20442;-70
2021/04/03 06:37:35;;;;;;;40.20;8.95;;;;;;;;;;5088221;28;20377;-70
2021/04/03 06:40:08;;;;;;;43.05;9.65;;;;;;;;;;5085232;28;20421;-70
2021/04/03 06:42:35;;;;;;;40.28;9.85;;;;;;;;;;5085029;28;20406;-70
2021/04/03 06:45:20;;;;;;;42.63;9.50;;;;;;;;;;5086879;28;20470;-70
2021/04/03 06:47:48;;;;;;;45.33;9.45;;;;;;;;;;5066802;28;20435;-70
2021/04/03 06:50:14;;;;;;;44.25;9.85;;;;;;;;;;5081698;28;21376;-72
2021/04/03 06:52:41;;;;;;;34.50;8.52;;;;;;;;;;5085185;28;20440;-70
2021/04/03 06:55:07;;;;;;;40.88;9.60;;;;;;;;;;5083130;28;20397;-71
2021/04/03 06:57:35;;;;;;;42.42;10.07;;;;;;;;;;5085925;28;20670;-71
2021/04/03 07:00:02;;;;;;;40.42;9.43;;;;;;;;;;5082242;28;20861;-71
2021/04/03 07:02:32;;;;;;;42.45;9.73;;;;;;;;;;5069675;28;20416;-70
2021/04/03 07:05:00;;;;;;;45.30;10.20;;;;;;;;;;5061850;28;20475;-71
2021/04/03 07:07:29;;;;;;;41.17;9.73;;;;;;;;;;5083611;28;20461;-71
2021/04/03 07:09:56;;;;;;;45.90;9.95;;;;;;;;;;5082909;28;20685;-71
2021/04/03 07:12:22;;;;;;;42.75;9.60;;;;;;;;;;5068328;28;20743;-70
2021/04/03 07:14:48;;;;;;;38.35;9.73;;;;;;;;;;5086613;28;20469;-71
2021/04/03 07:17:15;;;;;;;38.28;10.32;;;;;;;;;;5083620;28;20396;-71
2021/04/03 07:19:42;;;;;;;37.83;9.52;;;;;;;;;;5062641;28;20420;-70
2021/04/03 07:22:09;;;;;;;42.17;9.13;;;;;;;;;;5086855;28;20432;-70
2021/04/03 07:24:36;;;;;;;41.75;9.75;;;;;;;;;;5054826;28;21009;-70
2021/04/03 07:27:03;;;;;;;45.95;9.95;;;;;;;;;;5081275;28;20849;-70
2021/04/03 07:29:41;;;;;;;45.03;10.07;;;;;;;;;;5068786;28;20386;-70
2021/04/03 07:32:07;;;;;;;38.28;10.13;;;;;;;;;;5079153;28;20705;-71
2021/04/03 07:34:40;;;;;;;43.53;9.47;;;;;;;;;;5085674;28;20389;-70
2021/04/03 07:37:11;;;;;;;41.47;10.15;;;;;;;;;;5084680;28;20393;-70
2021/04/03 07:39:39;;;;;;;38.55;10.38;;;;;;;;;;5085843;28;20400;-70
2021/04/03 07:42:25;;;;;;;42.10;10.38;;;;;;;;;;5085992;28;20432;-70
2021/04/03 07:44:52;;;;;;;44.67;9.85;;;;;;;;;;5077899;28;20419;-70
2021/04/03 07:47:20;;;;;;;35.25;9.20;;;;;;;;;;5083625;28;20766;-71
2021/04/03 07:49:47;;;;;;;40.88;9.73;;;;;;;;;;5085472;28;20402;-71
2021/04/03 07:52:14;;;;;;;43.05;9.80;;;;;;;;;;5080369;28;20395;-71
2021/04/03 07:54:40;;;;;;;38.90;9.48;;;;;;;;;;5084869;28;20828;-70
2021/04/03 07:57:10;;;;;;;41.35;10.10;;;;;;;;;;5084245;28;20469;-70
2021/04/03 07:59:47;;;;;;;42.38;9.95;;;;;;;;;;5086096;28;20378;-71
2021/04/03 08:02:14;;;;;;;37.80;9.05;;;;;;;;;;5057057;28;20406;-72
2021/04/03 08:04:41;;;;;;;42.80;9.47;;;;;;;;;;5082244;28;20433;-70
2021/04/03 08:07:08;;;;;;;39.83;8.95;;;;;;;;;;5084125;28;20401;-71
2021/04/03 08:09:35;;;;;;;39.33;9.85;;;;;;;;;;5081133;28;20412;-73
2021/04/03 08:12:01;;;;;;;39.10;8.53;;;;;;;;;;5085606;28;20538;-71
2021/04/03 08:14:28;;;;;;;35.55;8.68;;;;;;;;;;5086056;28;20445;-72
2021/04/03 08:16:55;;;;;;;33.30;8.90;;;;;;;;;;5078929;28;20386;-71
2021/04/03 08:19:24;;;;;;;32.63;8.20;;;;;;;;;;5083604;28;20769;-71
2021/04/03 08:21:50;;;;;;;40.63;8.73;;;;;;;;;;5065739;28;20914;-71
2021/04/03 08:24:17;;;;;;;42.30;9.00;;;;;;;;;;5081357;28;20432;-72
2021/04/03 08:26:43;;;;;;;33.60;8.50;;;;;;;;;;5082057;28;20755;-71
2021/04/03 08:29:20;;;;;;;31.30;8.15;;;;;;;;;;5083549;28;20487;-71
2021/04/03 08:31:48;;;;;;;34.53;8.63;;;;;;;;;;5083679;28;20394;-71
2021/04/03 08:34:14;;;;;;;35.42;8.77;;;;;;;;;;5084589;28;20956;-71
2021/04/03 08:36:40;;;;;;;38.20;9.55;;;;;;;;;;5080684;28;20416;-72
2021/04/03 08:39:08;;;;;;;42.35;9.60;;;;;;;;;;5081623;28;20791;-71
2021/04/03 08:41:34;;;;;;;40.47;8.65;;;;;;;;;;5086486;28;20402;-71
2021/04/03 08:44:00;;;;;;;31.65;8.98;;;;;;;;;;5058271;28;20885;-72
2021/04/03 08:46:26;;;;;;;35.33;9.27;;;;;;;;;;5085460;28;20382;-71
2021/04/03 08:48:56;;;;;;;37.65;8.57;;;;;;;;;;5085492;28;20759;-72
2021/04/03 08:51:23;;;;;;;30.52;8.35;;;;;;;;;;5088813;28;20715;-71
2021/04/03 08:53:50;;;;;;;26.92;7.43;;;;;;;;;;5083427;28;20439;-72
2021/04/03 08:56:17;;;;;;;31.30;7.95;;;;;;;;;;5086560;28;20394;-71
2021/04/03 08:58:44;;;;;;;33.38;7.95;;;;;;;;;;5086182;28;20462;-71
2021/04/03 09:01:10;;;;;;;32.55;8.07;;;;;;;;;;5079468;28;20405;-71
2021/04/03 09:03:36;;;;;;;30.90;8.25;;;;;;;;;;5087082;28;20859;-71
2021/04/03 09:06:02;;;;;;;34.88;8.63;;;;;;;;;;5088209;28;20385;-71
2021/04/03 09:08:28;;;;;;;32.38;8.07;;;;;;;;;;5088053;28;20790;-71
2021/04/03 09:10:59;;;;;;;27.88;7.25;;;;;;;;;;5088348;28;20371;-71
2021/04/03 09:13:36;;;;;;;36.65;8.45;;;;;;;;;;5084312;28;20428;-71
2021/04/03 09:16:10;;;;;;;36.27;8.23;;;;;;;;;;5082537;28;21032;-71
2021/04/03 09:18:37;;;;;;;32.05;8.15;;;;;;;;;;5070708;28;20459;-71
2021/04/03 09:21:03;;;;;;;34.08;7.82;;;;;;;;;;5091433;28;20459;-70
2021/04/03 09:23:30;;;;;;;29.45;8.23;;;;;;;;;;5086079;28;20721;-71
2021/04/03 09:26:00;;;;;;;30.13;7.28;;;;;;;;;;5095476;28;20370;-71
2021/04/03 09:28:32;;;;;;;33.53;8.00;;;;;;;;;;5066435;28;20410;-71
2021/04/03 09:30:58;;;;;;;29.67;7.87;;;;;;;;;;5087787;28;20508;-71
2021/04/03 09:33:26;;;;;;;25.70;7.43;;;;;;;;;;5087900;28;20955;-71
2021/04/03 09:35:52;;;;;;;33.20;7.80;;;;;;;;;;5087807;28;20562;-71
2021/04/03 09:38:33;;;;;;;27.10;7.80;;;;;;;;;;5088285;28;20824;-70
2021/04/03 09:40:59;;;;;;;27.92;7.00;;;;;;;;;;5088086;28;20390;-70
2021/04/03 09:43:41;;;;;;;25.75;7.00;;;;;;;;;;5084544;28;20425;-71
2021/04/03 09:46:08;;;;;;;30.30;7.63;;;;;;;;;;5084164;28;20406;-72
2021/04/03 09:48:35;;;;;;;26.27;6.77;;;;;;;;;;5089047;28;20431;-70
2021/04/03 09:51:01;;;;;;;29.98;7.13;;;;;;;;;;5069993;28;20385;-71
2021/04/03 09:53:29;;;;;;;35.00;7.72;;;;;;;;;;5059958;28;20881;-72
2021/04/03 09:55:56;;;;;;;30.50;7.90;;;;;;;;;;5081592;28;20382;-71
2021/04/03 09:58:22;;;;;;;26.80;7.78;;;;;;;;;;5086993;28;21095;-71
2021/04/03 10:00:48;;;;;;;31.70;7.75;;;;;;;;;;5067441;28;20398;-71
2021/04/03 10:03:14;;;;;;;26.02;6.93;;;;;;;;;;5076560;28;20909;-71
2021/04/03 10:05:41;;;;;;;29.42;7.30;;;;;;;;;;5088598;28;20408;-71
2021/04/03 10:08:07;;;;;;;32.37;7.70;;;;;;;;;;5088274;28;20439;-71
2021/04/03 10:10:33;;;;;;;30.17;7.45;;;;;;;;;;5088003;28;20412;-71
2021/04/03 10:12:59;;;;;;;32.45;7.53;;;;;;;;;;5086380;28;20429;-71
2021/04/03 10:15:25;;;;;;;32.50;7.75;;;;;;;;;;5084609;28;20405;-71
2021/04/03 10:17:51;;;;;;;34.17;7.78;;;;;;;;;;5087442;28;20408;-70
2021/04/03 10:20:19;;;;;;;27.83;7.45;;;;;;;;;;5086228;28;20513;-71
2021/04/03 10:22:45;;;;;;;31.23;8.23;;;;;;;;;;5088697;28;20787;-70
2021/04/03 10:25:11;;;;;;;32.72;8.27;;;;;;;;;;5087066;28;20478;-71
2021/04/03 10:27:37;;;;;;;33.47;7.97;;;;;;;;;;5087337;28;20485;-71
2021/04/03 10:30:04;;;;;;;31.13;8.20;;;;;;;;;;5086930;28;20404;-71
2021/04/03 10:32:30;;;;;;;27.48;7.10;;;;;;;;;;5088091;28;20847;-71
2021/04/03 10:34:56;;;;;;;32.63;7.90;;;;;;;;;;5088181;28;20485;-71
2021/04/03 10:37:22;;;;;;;28.17;7.63;;;;;;;;;;5088239;28;20925;-70
2021/04/03 10:39:49;;;;;;;25.77;7.70;;;;;;;;;;5068335;28;20721;-71
2021/04/03 10:42:15;;;;;;;30.58;7.38;;;;;;;;;;5067922;28;20490;-71
2021/04/03 10:44:41;;;;;;;27.40;7.10;;;;;;;;;;5088028;28;20410;-70
2021/04/03 10:47:07;;;;;;;32.47;7.07;;;;;;;;;;5088772;28;20390;-71
2021/04/03 10:49:33;;;;;;;32.53;7.35;;;;;;;;;;5085197;28;20390;-71
2021/04/03 10:51:59;;;;;;;25.47;7.43;;;;;;;;;;5084344;28;20386;-70
2021/04/03 10:54:25;;;;;;;31.17;8.35;;;;;;;;;;5085682;28;20390;-70
2021/04/03 10:56:51;;;;;;;32.25;8.15;;;;;;;;;;5082237;28;20838;-70
2021/04/03 10:59:17;;;;;;;26.88;7.18;;;;;;;;;;5065211;28;20398;-70
2021/04/03 11:01:44;;;;;;;32.38;7.05;;;;;;;;;;5088784;28;20427;-69
2021/04/03 11:04:10;;;;;;;27.90;7.53;;;;;;;;;;5086169;28;20414;-69
2021/04/03 11:06:36;;;;;;;24.27;6.85;;;;;;;;;;5087178;28;20424;-68
2021/04/03 11:09:02;;;;;;;22.50;6.22;;;;;;;;;;5069069;28;20400;-69
2021/04/03 11:11:29;;;;;;;25.13;6.20;;;;;;;;;;5088358;28;20928;-69
2021/04/03 11:13:55;;;;;;;23.90;5.90;;;;;;;;;;5064409;28;20423;-71
2021/04/03 11:16:21;;;;;;;24.98;6.15;;;;;;;;;;5083927;28;20382;-71
2021/04/03 11:18:47;;;;;;;29.70;6.37;;;;;;;;;;5086306;28;20468;-71
2021/04/03 11:21:13;;;;;;;24.77;6.93;;;;;;;;;;5084491;28;20396;-71
2021/04/03 11:23:39;;;;;;;21.70;6.38;;;;;;;;;;5087905;28;20422;-70
2021/04/03 11:26:05;;;;;;;20.42;6.63;;;;;;;;;;5067320;28;20393;-71
2021/04/03 11:28:31;;;;;;;35.42;8.98;;;;;;;;;;5099329;28;20405;-68
2021/04/03 11:30:57;;;;;;;34.15;12.65;;;;;;;;;;5081820;28;20482;-69
2021/04/03 11:33:25;;;;;;;27.63;10.60;;;;;;;;;;5078521;28;20385;-70
2021/04/03 11:35:51;;;;;;;26.60;10.10;;;;;;;;;;5084705;28;20390;-70
2021/04/03 11:38:17;;;;;;;34.67;13.52;;;;;;;;;;5064686;28;20464;-69
2021/04/03 11:40:43;;;;;;;34.80;13.13;;;;;;;;;;5082058;28;20839;-69
2021/04/03 11:43:09;;;;;;;39.10;15.77;;;;;;;;;;5085680;28;20390;-70
2021/04/03 11:45:35;;;;;;;33.78;11.20;;;;;;;;;;5086220;28;20401;-69
2021/04/03 11:48:01;;;;;;;40.35;15.32;;;;;;;;;;5086197;28;20474;-70
2021/04/03 11:50:27;;;;;;;32.58;10.32;;;;;;;;;;5086940;28;20813;-71
2021/04/03 11:52:54;;;;;;;35.85;11.82;;;;;;;;;;5079763;28;20456;-70
2021/04/03 11:55:21;;;;;;;33.25;12.43;;;;;;;;;;5086380;28;20378;-69
2021/04/03 11:57:47;;;;;;;27.10;8.90;;;;;;;;;;5066932;28;20401;-70
2021/04/03 12:00:14;;;;;;;24.83;8.05;;;;;;;;;;5061902;28;20410;-69
2021/04/03 12:02:40;;;;;;;28.75;6.38;;;;;;;;;;5076525;28;20405;-70
2021/04/03 12:05:07;;;;;;;28.42;6.72;;;;;;;;;;5068288;28;20432;-71
2021/04/03 12:07:36;;;;;;;22.75;6.85;;;;;;;;;;5085994;28;20465;-70
2021/04/03 12:10:04;;;;;;;27.85;6.75;;;;;;;;;;5097803;28;20966;-70
2021/04/03 12:12:30;;;;;;;22.70;6.10;;;;;;;;;;5066511;28;20408;-71
2021/04/03 12:14:56;;;;;;;23.80;6.07;;;;;;;;;;5084872;28;20402;-72
2021/04/03 12:17:22;;;;;;;24.15;5.82;;;;;;;;;;5086013;28;20927;-71
2021/04/03 12:19:48;;;;;;;23.77;5.83;;;;;;;;;;5076307;28;20905;-70
2021/04/03 12:22:14;;;;;;;21.08;5.97;;;;;;;;;;5073457;28;20498;-71
2021/04/03 12:24:40;;;;;;;25.00;6.28;;;;;;;;;;5081495;28;20427;-71
2021/04/03 12:27:06;;;;;;;16.48;4.80;;;;;;;;;;5089530;28;20386;-71
2021/04/03 12:29:32;;;;;;;22.60;5.70;;;;;;;;;;5091182;28;20398;-69
2021/04/03 12:31:58;;;;;;;25.98;6.65;;;;;;;;;;5089004;28;20436;-69
2021/04/03 12:34:24;;;;;;;22.13;5.85;;;;;;;;;;5083094;28;20475;-71
2021/04/03 12:36:50;;;;;;;24.57;6.60;;;;;;;;;;5090032;28;20386;-70
2021/04/03 12:39:16;;;;;;;28.00;6.70;;;;;;;;;;5090841;28;20453;-69
2021/04/03 12:41:42;;;;;;;28.45;6.63;;;;;;;;;;5072152;28;20394;-69
2021/04/03 12:44:08;;;;;;;23.42;6.50;;;;;;;;;;5079224;28;21735;-71
2021/04/03 12:46:34;;;;;;;25.85;6.55;;;;;;;;;;5083950;28;20853;-70
2021/04/03 12:49:00;;;;;;;26.80;6.53;;;;;;;;;;5085480;28;20374;-70
2021/04/03 12:51:26;;;;;;;22.38;5.97;;;;;;;;;;5087861;28;20489;-70
2021/04/03 12:53:52;;;;;;;21.30;5.95;;;;;;;;;;5087632;28;20390;-71
2021/04/03 12:56:18;;;;;;;24.88;6.65;;;;;;;;;;5080835;28;20486;-70
2021/04/03 12:58:44;;;;;;;25.42;6.95;;;;;;;;;;5081238;28;20387;-69
2021/04/03 13:01:10;;;;;;;25.03;6.47;;;;;;;;;;5087160;28;20768;-70
2021/04/03 13:03:36;;;;;;;23.85;6.57;;;;;;;;;;5083383;28;20433;-69
2021/04/03 13:06:02;;;;;;;21.30;5.93;;;;;;;;;;5082060;28;20386;-70
2021/04/03 13:08:28;;;;;;;20.73;5.57;;;;;;;;;;5084667;28;20386;-69
2021/04/03 13:10:54;;;;;;;23.70;5.95;;;;;;;;;;5062158;28;20421;-69
2021/04/03 13:13:20;;;;;;;25.60;6.57;;;;;;;;;;5079358;28;20413;-70
2021/04/03 13:15:46;;;;;;;23.92;6.07;;;;;;;;;;5075483;28;20923;-70
2021/04/03 13:18:12;;;;;;;23.60;6.38;;;;;;;;;;5082873;28;21262;-70
2021/04/03 13:20:38;;;;;;;27.08;6.78;;;;;;;;;;5083349;28;21398;-70
2021/04/03 13:23:05;;;;;;;27.67;6.20;;;;;;;;;;5086610;28;20418;-69
2021/04/03 13:25:31;;;;;;;26.60;5.97;;;;;;;;;;5090121;28;20507;-70
2021/04/03 13:27:57;;;;;;;22.50;5.93;;;;;;;;;;5063102;28;20954;-69
2021/04/03 13:30:23;;;;;;;24.73;6.40;;;;;;;;;;5081059;28;20386;-69
2021/04/03 13:32:49;;;;;;;26.10;6.68;;;;;;;;;;5082486;28;20426;-69
2021/04/03 13:35:15;;;;;;;26.67;6.57;;;;;;;;;;5082622;28;20994;-69
2021/04/03 13:37:41;;;;;;;25.92;7.03;;;;;;;;;;5057708;28;20406;-70
2021/04/03 13:40:08;;;;;;;27.27;6.70;;;;;;;;;;5080008;28;20481;-70
2021/04/03 13:42:34;;;;;;;24.70;6.60;;;;;;;;;;5085840;28;20429;-69
2021/04/03 13:44:59;;;;;;;32.78;7.40;;;;;;;;;;5089407;28;20912;-70
2021/04/03 13:47:26;;;;;;;28.50;6.82;;;;;;;;;;5087811;28;20397;-69
2021/04/03 13:49:51;;;;;;;22.88;6.25;;;;;;;;;;5088860;28;20408;-69
2021/04/03 13:52:17;;;;;;;23.98;6.20;;;;;;;;;;5088285;28;20479;-70
2021/04/03 13:54:43;;;;;;;20.60;6.03;;;;;;;;;;5083717;28;20709;-71
2021/04/03 13:57:11;;;;;;;24.63;6.50;;;;;;;;;;5070673;28;20438;-70
2021/04/03 13:59:36;;;;;;;25.40;6.18;;;;;;;;;;5088972;28;20374;-70
2021/04/03 14:02:02;;;;;;;22.85;6.72;;;;;;;;;;5088639;28;20396;-69
2021/04/03 14:04:28;;;;;;;26.55;7.15;;;;;;;;;;5070091;28;20560;-69
2021/04/03 14:06:55;;;;;;;23.87;6.13;;;;;;;;;;5088253;28;20465;-71
2021/04/03 14:09:21;;;;;;;26.92;6.35;;;;;;;;;;5088600;28;20378;-72
2021/04/03 14:11:47;;;;;;;26.85;6.65;;;;;;;;;;5082673;28;20451;-73
2021/04/03 14:14:14;;;;;;;26.20;6.80;;;;;;;;;;5080956;28;20404;-73
2021/04/03 14:16:40;;;;;;;27.05;5.80;;;;;;;;;;5088384;28;20377;-70
2021/04/03 14:19:06;;;;;;;22.08;6.57;;;;;;;;;;5088136;28;20764;-71
2021/04/03 14:21:32;;;;;;;25.97;6.10;;;;;;;;;;5087574;28;20402;-70
2021/04/03 14:23:58;;;;;;;26.98;6.35;;;;;;;;;;5070513;28;20851;-70
2021/04/03 14:26:24;;;;;;;24.33;6.20;;;;;;;;;;5088321;28;20378;-70
2021/04/03 14:28:50;;;;;;;27.25;6.60;;;;;;;;;;5066931;28;20912;-70